createdAt,value
2023-05-16T00:00:00.002Z,0
2023-05-16T00:16:02.452Z,0
2023-05-16T00:31:04.584Z,0
2023-05-16T00:46:01.880Z,0
2023-05-16T01:00:03.921Z,0
2023-05-16T01:16:01.275Z,0
2023-05-16T01:31:03.696Z,0
2023-05-16T01:46:00.563Z,0
2023-05-16T02:00:02.481Z,0
2023-05-16T02:15:59.858Z,0
2023-05-16T02:31:02.164Z,0
2023-05-16T02:46:04.349Z,0
2023-05-16T03:00:01.454Z,0
2023-05-16T03:16:03.920Z,0
2023-05-16T03:31:00.771Z,0
2023-05-16T03:46:02.887Z,0
2023-05-16T03:59:59.885Z,0
2023-05-16T04:16:02.270Z,0
2023-05-16T04:31:04.383Z,6
2023-05-16T04:46:01.674Z,7
2023-05-16T05:00:03.661Z,8
2023-05-16T05:16:00.980Z,21
2023-05-16T05:31:03.265Z,30
2023-05-16T05:46:00.737Z,25
2023-05-16T06:00:02.776Z,19
2023-05-16T06:16:00.158Z,23
2023-05-16T06:31:02.332Z,31
2023-05-16T06:46:04.604Z,39
2023-05-16T07:00:01.601Z,61
2023-05-16T07:16:03.916Z,64
2023-05-16T07:31:01.168Z,91
2023-05-16T07:46:03.310Z,55
2023-05-16T08:00:00.184Z,41
2023-05-16T08:16:02.681Z,32
2023-05-16T08:31:04.709Z,36
2023-05-16T08:46:01.732Z,67
2023-05-16T09:00:03.860Z,70
2023-05-16T09:16:01.284Z,65
2023-05-16T09:31:03.459Z,59
2023-05-16T09:46:00.462Z,140
2023-05-16T10:00:02.636Z,149
2023-05-16T10:15:59.873Z,88
2023-05-16T10:31:02.032Z,79
2023-05-16T10:46:06.644Z,52
2023-05-16T11:00:01.429Z,101
2023-05-16T11:16:03.684Z,116
2023-05-16T11:31:00.829Z,67
2023-05-16T11:46:02.903Z,92
2023-05-16T11:59:59.855Z,77
2023-05-16T12:16:02.162Z,82
2023-05-16T12:31:04.254Z,89
2023-05-16T12:46:01.624Z,82
2023-05-16T13:00:03.421Z,96
2023-05-16T13:16:00.674Z,123
2023-05-16T13:31:02.778Z,94
2023-05-16T13:46:00.082Z,87
2023-05-16T14:01:44.604Z,86
2023-05-16T14:16:04.210Z,57
2023-05-16T14:31:01.440Z,47
2023-05-16T14:46:03.780Z,60
2023-05-16T15:00:00.532Z,62
2023-05-16T15:16:02.863Z,53
2023-05-16T15:30:59.897Z,60
2023-05-16T15:46:02.281Z,90
2023-05-16T16:00:04.175Z,66
2023-05-16T16:16:01.552Z,41
2023-05-16T16:31:03.558Z,42
2023-05-16T16:46:00.690Z,41
2023-05-16T17:00:02.816Z,34
2023-05-16T17:16:00.036Z,25
2023-05-16T17:31:02.251Z,21
2023-05-16T17:46:04.447Z,17
2023-05-16T18:00:01.364Z,9
2023-05-16T18:16:03.657Z,1
2023-05-16T18:31:01.020Z,0
2023-05-16T18:46:03.230Z,0
2023-05-16T19:00:00.095Z,0
2023-05-16T19:16:02.560Z,0
2023-05-16T19:31:04.637Z,0
2023-05-16T19:46:01.898Z,0
2023-05-16T20:00:03.742Z,0
2023-05-16T20:16:01.144Z,0
2023-05-16T20:31:03.273Z,0
2023-05-16T20:46:00.094Z,0
2023-05-16T21:00:02.114Z,0
2023-05-16T21:16:04.375Z,0
2023-05-16T21:31:01.470Z,0
2023-05-16T21:46:03.546Z,0
2023-05-16T22:00:00.443Z,0
2023-05-16T22:16:04.840Z,0
2023-05-16T22:31:00.008Z,0
2023-05-16T22:46:03.323Z,0
2023-05-16T23:00:03.930Z,0
2023-05-16T23:16:01.282Z,0
2023-05-16T23:31:03.415Z,0
2023-05-16T23:46:00.748Z,0
